createdAt,value
2018-04-23T00:01:51.478Z,95044.23
2018-04-23T00:04:18.179Z,95044.48
2018-04-23T00:06:44.866Z,95047.56
2018-04-23T00:09:11.628Z,95045.13
2018-04-23T00:11:38.268Z,95043.68
2018-04-23T00:14:04.908Z,95042.68
2018-04-23T00:16:31.644Z,95039.64
2018-04-23T00:18:58.290Z,95036.66
2018-04-23T00:21:24.996Z,95036.16
2018-04-23T00:23:51.627Z,95031.61
2018-04-23T00:26:18.363Z,95031.91
2018-04-23T00:28:45.006Z,95026.86
2018-04-23T00:31:11.677Z,95022.34
2018-04-23T00:33:38.302Z,95025.89
2018-04-23T00:36:05.015Z,95024.88
2018-04-23T00:38:33.853Z,95025.26
2018-04-23T00:41:00.536Z,95026.05
2018-04-23T00:43:27.167Z,95014.83
2018-04-23T00:45:53.806Z,95017.86
2018-04-23T00:48:20.496Z,95014.33
2018-04-23T00:50:56.706Z,95014.48
2018-04-23T00:53:33.408Z,95022.32
2018-04-23T00:56:10.208Z,95028.30
2018-04-23T00:58:46.359Z,95021.85
2018-04-23T01:01:23.092Z,95028.21
2018-04-23T01:03:49.719Z,95031.11
2018-04-23T01:06:16.368Z,95025.85
2018-04-23T01:08:43.033Z,95027.12
2018-04-23T01:11:09.639Z,95033.31
2018-04-23T01:13:36.301Z,95032.94
2018-04-23T01:16:02.949Z,95029.91
2018-04-23T01:18:29.602Z,95030.16
2018-04-23T01:20:56.251Z,95029.56
2018-04-23T01:23:22.875Z,95039.05
2018-04-23T01:25:49.510Z,95033.02
2018-04-23T01:28:16.150Z,95030.97
2018-04-23T01:30:42.748Z,95035.92
2018-04-23T01:33:09.391Z,95032.55
2018-04-23T01:35:36.059Z,95031.55
2018-04-23T01:38:02.736Z,95033.44
2018-04-23T01:40:29.419Z,95036.25
2018-04-23T01:42:56.015Z,95037.14
2018-04-23T01:45:22.700Z,95033.48
2018-04-23T01:47:49.338Z,95027.46
2018-04-23T01:50:15.993Z,95033.14
2018-04-23T01:52:42.617Z,95027.12
2018-04-23T01:55:09.256Z,95025.86
2018-04-23T02:00:02.272Z,95032.17
2018-04-23T02:04:55.149Z,95030.31
2018-04-23T02:07:21.863Z,95039.03
2018-04-23T02:09:48.498Z,95040.41
2018-04-23T02:12:15.137Z,95049.16
2018-04-23T02:14:41.846Z,95055.59
2018-04-23T02:17:08.523Z,95045.63
2018-04-23T02:19:35.169Z,95047.27
2018-04-23T02:22:01.804Z,95043.52
2018-04-23T02:24:28.447Z,95048.84
2018-04-23T02:26:55.108Z,95047.30
2018-04-23T02:29:21.747Z,95049.36
2018-04-23T02:31:48.385Z,95049.99
2018-04-23T02:34:15.050Z,95054.19
2018-04-23T02:36:41.657Z,95051.29
2018-04-23T02:39:08.318Z,95053.17
2018-04-23T02:41:34.967Z,95050.28
2018-04-23T02:44:01.572Z,95053.34
2018-04-23T02:46:28.243Z,95052.86
2018-04-23T02:48:54.839Z,95046.28
2018-04-23T02:51:21.520Z,95037.89
2018-04-23T02:53:48.117Z,95049.72
2018-04-23T02:56:14.796Z,95047.36
2018-04-23T02:58:41.427Z,95053.79
2018-04-23T03:01:08.092Z,95058.73
2018-04-23T03:03:34.784Z,95056.50
2018-04-23T03:06:01.385Z,95056.00
2018-04-23T03:08:28.092Z,95054.55
2018-04-23T03:10:54.687Z,95054.80
2018-04-23T03:13:21.324Z,95052.40
2018-04-23T03:15:47.997Z,95056.94
2018-04-23T03:18:14.628Z,95056.59
2018-04-23T03:20:41.271Z,95065.52
2018-04-23T03:23:07.898Z,95061.23
2018-04-23T03:25:34.535Z,95063.06
2018-04-23T03:28:01.175Z,95072.36
2018-04-23T03:30:27.807Z,95069.14
2018-04-23T03:32:54.458Z,95072.39
2018-04-23T03:35:21.086Z,95073.53
2018-04-23T03:37:47.729Z,95068.13
2018-04-23T03:40:14.370Z,95069.86
2018-04-23T03:42:40.980Z,95075.23
2018-04-23T03:45:07.658Z,95078.73
2018-04-23T03:47:34.334Z,95076.92
2018-04-23T03:50:00.976Z,95080.27
2018-04-23T03:52:27.742Z,95079.84
2018-04-23T03:54:54.347Z,95080.67
2018-04-23T03:57:21.028Z,95082.69
2018-04-23T03:59:47.635Z,95075.09
2018-04-23T04:02:14.321Z,95078.92
2018-04-23T04:04:40.983Z,95075.73
2018-04-23T04:07:07.632Z,95078.16
2018-04-23T04:09:34.225Z,95078.66
2018-04-23T04:12:02.241Z,95085.57
2018-04-23T04:14:27.496Z,95082.80
2018-04-23T04:16:54.172Z,95080.09
2018-04-23T04:19:20.821Z,95090.70
2018-04-23T04:21:47.468Z,95087.05
2018-04-23T04:24:14.106Z,95098.39
2018-04-23T04:26:40.817Z,95089.27
2018-04-23T04:29:07.477Z,95080.61
2018-04-23T04:31:34.103Z,95078.58
2018-04-23T04:34:00.740Z,95084.84
2018-04-23T04:36:27.383Z,95085.37
2018-04-23T04:38:54.115Z,95085.55
2018-04-23T04:41:20.793Z,95089.77
2018-04-23T04:43:47.433Z,95097.70
2018-04-23T04:46:14.069Z,95097.52
2018-04-23T04:48:40.710Z,95106.70
2018-04-23T04:51:07.359Z,95108.37
2018-04-23T04:53:33.995Z,95110.58
2018-04-23T04:56:00.660Z,95104.05
2018-04-23T04:58:27.352Z,95107.00
2018-04-23T05:00:54.077Z,95096.99
2018-04-23T05:03:20.687Z,95102.97
2018-04-23T05:05:47.327Z,95098.07
2018-04-23T05:08:14.009Z,95098.52
2018-04-23T05:10:40.691Z,95107.98
2018-04-23T05:13:07.464Z,95108.50
2018-04-23T05:15:34.071Z,95106.36
2018-04-23T05:18:00.744Z,95105.76
2018-04-23T05:20:27.343Z,95103.95
2018-04-23T05:22:54.010Z,95113.34
2018-04-23T05:25:20.605Z,95107.45
2018-04-23T05:27:47.264Z,95115.88
2018-04-23T05:30:13.884Z,95117.22
2018-04-23T05:32:40.519Z,95121.97
2018-04-23T05:35:07.206Z,95113.21
2018-04-23T05:37:33.881Z,95119.66
2018-04-23T05:40:00.510Z,95119.12
2018-04-23T05:42:27.125Z,95115.27
2018-04-23T05:44:53.786Z,95111.64
2018-04-23T05:47:20.458Z,95109.16
2018-04-23T05:49:50.204Z,95106.84
2018-04-23T05:52:16.882Z,95106.53
2018-04-23T05:54:44.047Z,95113.93
2018-04-23T05:57:10.740Z,95109.06
2018-04-23T05:59:37.381Z,95116.33
2018-04-23T06:02:04.015Z,95119.05
2018-04-23T06:04:30.661Z,95115.58
2018-04-23T06:06:57.305Z,95107.55
2018-04-23T06:09:25.180Z,95104.76
2018-04-23T06:11:50.630Z,95100.58
2018-04-23T06:14:17.325Z,95109.94
2018-04-23T06:16:43.922Z,95099.81
2018-04-23T06:19:10.558Z,95106.95
2018-04-23T06:21:37.211Z,95104.12
2018-04-23T06:24:03.844Z,95105.78
2018-04-23T06:26:30.583Z,95112.17
2018-04-23T06:28:57.228Z,95105.06
2018-04-23T06:31:23.862Z,95098.30
2018-04-23T06:33:50.503Z,95100.33
2018-04-23T06:36:17.141Z,95089.62
2018-04-23T06:38:43.822Z,95085.44
2018-04-23T06:41:10.465Z,95089.47
2018-04-23T06:43:37.068Z,95093.01
2018-04-23T06:46:04.012Z,95097.73
2018-04-23T06:48:30.701Z,95102.67
2018-04-23T06:50:57.415Z,95102.09
2018-04-23T06:53:24.043Z,95094.17
2018-04-23T06:55:50.713Z,95095.94
2018-04-23T06:58:17.349Z,95097.48
2018-04-23T07:00:43.981Z,95089.61
2018-04-23T07:03:10.624Z,95101.77
2018-04-23T07:05:37.287Z,95094.80
2018-04-23T07:08:03.934Z,95095.00
2018-04-23T07:10:30.610Z,95102.71
2018-04-23T07:12:57.248Z,95099.67
2018-04-23T07:15:23.864Z,95101.87
2018-04-23T07:17:50.618Z,95100.73
2018-04-23T07:20:17.263Z,95106.06
2018-04-23T07:22:43.900Z,95102.07
2018-04-23T07:25:10.548Z,95106.76
2018-04-23T07:27:37.228Z,95110.53
2018-04-23T07:30:03.875Z,95113.81
2018-04-23T07:32:30.492Z,95105.47
2018-04-23T07:34:57.130Z,95106.95
2018-04-23T07:37:23.932Z,95103.56
2018-04-23T07:39:50.602Z,95108.34
2018-04-23T07:42:17.261Z,95109.73
2018-04-23T07:44:43.871Z,95111.41
2018-04-23T07:47:10.549Z,95107.52
2018-04-23T07:49:37.162Z,95118.13
2018-04-23T07:52:03.850Z,95116.91
2018-04-23T07:54:30.507Z,95121.13
2018-04-23T07:56:57.149Z,95123.44
2018-04-23T07:59:23.833Z,95122.13
2018-04-23T08:01:50.470Z,95119.99
2018-04-23T08:04:17.183Z,95118.89
2018-04-23T08:06:43.863Z,95120.40
2018-04-23T08:09:10.504Z,95118.98
2018-04-23T08:11:37.171Z,95116.41
2018-04-23T08:14:03.829Z,95121.06
2018-04-23T08:16:30.466Z,95122.47
2018-04-23T08:18:57.111Z,95116.37
2018-04-23T08:21:23.774Z,95121.78
2018-04-23T08:23:50.380Z,95112.97
2018-04-23T08:26:17.058Z,95112.48
2018-04-23T08:28:44.043Z,95110.22
2018-04-23T08:31:10.658Z,95105.04
2018-04-23T08:33:37.375Z,95107.58
2018-04-23T08:36:03.986Z,95101.72
2018-04-23T08:38:30.635Z,95104.62
2018-04-23T08:40:57.278Z,95101.83
2018-04-23T08:43:23.911Z,95099.16
2018-04-23T08:45:50.667Z,95095.80
2018-04-23T08:48:17.307Z,95096.52
2018-04-23T08:50:44.047Z,95098.10
2018-04-23T08:53:10.741Z,95094.66
2018-04-23T08:55:37.376Z,95090.20
2018-04-23T08:58:03.974Z,95092.14
2018-04-23T09:00:30.622Z,95091.05
2018-04-23T09:02:57.259Z,95083.48
2018-04-23T09:05:23.941Z,95083.86
2018-04-23T09:07:50.651Z,95079.78
2018-04-23T09:10:17.290Z,95081.26
2018-04-23T09:12:44.003Z,95080.70
2018-04-23T09:15:10.611Z,95072.36
2018-04-23T09:17:37.238Z,95077.52
2018-04-23T09:20:03.928Z,95078.58
2018-04-23T09:22:30.575Z,95074.42
2018-04-23T09:24:57.261Z,95073.12
2018-04-23T09:27:23.931Z,95064.34
2018-04-23T09:29:50.546Z,95076.22
2018-04-23T09:32:17.216Z,95063.88
2018-04-23T09:34:43.901Z,95063.27
2018-04-23T09:37:10.619Z,95059.36
2018-04-23T09:39:37.216Z,95056.17
2018-04-23T09:42:03.895Z,95057.66
2018-04-23T09:44:30.581Z,95053.22
2018-04-23T09:46:57.247Z,95058.44
2018-04-23T09:49:23.875Z,95058.70
2018-04-23T09:51:50.568Z,95048.39
2018-04-23T09:54:17.219Z,95057.88
2018-04-23T09:56:43.813Z,95046.32
2018-04-23T09:59:10.485Z,95044.87
2018-04-23T10:01:37.076Z,95044.01
2018-04-23T10:04:03.955Z,95038.69
2018-04-23T10:06:30.556Z,95033.17
2018-04-23T10:08:57.185Z,95034.38
2018-04-23T10:11:23.827Z,95024.95
2018-04-23T10:13:50.482Z,95027.52
2018-04-23T10:16:17.206Z,95024.66
2018-04-23T10:18:43.815Z,95025.70
2018-04-23T10:21:10.524Z,95026.86
2018-04-23T10:23:37.135Z,95020.20
2018-04-23T10:26:03.823Z,95012.44
2018-04-23T10:28:30.449Z,95016.81
2018-04-23T10:30:57.120Z,95017.20
2018-04-23T10:33:24.768Z,95008.41
2018-04-23T10:35:51.403Z,95004.85
2018-04-23T10:38:18.084Z,95002.03
2018-04-23T10:40:44.741Z,95008.33
2018-04-23T10:43:11.458Z,94997.59
2018-04-23T10:45:38.174Z,95004.52
2018-04-23T10:48:04.904Z,94999.59
2018-04-23T10:50:31.503Z,94998.17
2018-04-23T10:52:58.164Z,94999.34
2018-04-23T10:55:24.839Z,94993.28
2018-04-23T10:57:51.435Z,94993.05
2018-04-23T11:00:18.184Z,94999.11
2018-04-23T11:02:44.824Z,94992.82
2018-04-23T11:05:11.459Z,94994.11
2018-04-23T11:07:38.110Z,94999.27
2018-04-23T11:10:04.743Z,94987.09
2018-04-23T11:12:31.385Z,94982.75
2018-04-23T11:14:58.017Z,94986.34
2018-04-23T11:17:24.753Z,94982.91
2018-04-23T11:19:51.384Z,94978.47
2018-04-23T11:22:17.988Z,94975.33
2018-04-23T11:24:44.642Z,94975.52
2018-04-23T11:27:11.313Z,94968.33
2018-04-23T11:29:38.028Z,94975.87
2018-04-23T11:32:04.628Z,94974.58
2018-04-23T11:34:31.295Z,94971.76
2018-04-23T11:36:57.961Z,94974.27
2018-04-23T11:39:24.654Z,94963.50
2018-04-23T11:41:51.534Z,94964.84
2018-04-23T11:44:18.368Z,94957.79
2018-04-23T11:46:45.043Z,94958.02
2018-04-23T11:49:11.928Z,94958.82
2018-04-23T11:51:38.546Z,94955.77
2018-04-23T11:54:05.222Z,94950.73
2018-04-23T11:56:31.892Z,94948.33
2018-04-23T11:58:58.510Z,94953.42
2018-04-23T12:01:25.147Z,94946.41
2018-04-23T12:03:51.887Z,94951.20
2018-04-23T12:06:18.555Z,94946.80
2018-04-23T12:08:45.159Z,94943.47
2018-04-23T12:11:11.847Z,94934.32
2018-04-23T12:13:38.522Z,94944.98
2018-04-23T12:16:05.167Z,94937.84
2018-04-23T12:18:31.757Z,94930.63
2018-04-23T12:20:58.496Z,94931.08
2018-04-23T12:23:25.101Z,94931.51
2018-04-23T12:25:51.771Z,94921.91
2018-04-23T12:28:18.432Z,94923.58
2018-04-23T12:30:45.067Z,94912.20
2018-04-23T12:33:11.706Z,94918.38
2018-04-23T12:35:38.389Z,94920.66
2018-04-23T12:38:05.113Z,94908.93
2018-04-23T12:40:31.825Z,94912.88
2018-04-23T12:42:58.462Z,94909.82
2018-04-23T12:45:25.145Z,94916.80
2018-04-23T12:47:51.781Z,94915.25
2018-04-23T12:50:18.439Z,94901.22
2018-04-23T12:52:45.050Z,94897.28
2018-04-23T12:55:11.686Z,94893.72
2018-04-23T12:57:38.422Z,94886.98
2018-04-23T13:00:05.066Z,94885.55
2018-04-23T13:02:31.737Z,94885.39
2018-04-23T13:04:58.376Z,94889.70
2018-04-23T13:07:25.036Z,94890.41
2018-04-23T13:09:51.672Z,94880.41
2018-04-23T13:12:18.362Z,94879.68
2018-04-23T13:14:45.026Z,94871.72
2018-04-23T13:17:11.627Z,94876.63
2018-04-23T13:19:38.260Z,94877.95
2018-04-23T13:22:04.960Z,94875.33
2018-04-23T13:24:31.561Z,94873.41
2018-04-23T13:26:58.548Z,94870.33
2018-04-23T13:29:25.279Z,94869.72
2018-04-23T13:31:51.876Z,94870.49
2018-04-23T13:34:18.536Z,94865.63
2018-04-23T13:36:45.224Z,94865.47
2018-04-23T13:39:11.814Z,94862.33
2018-04-23T13:41:38.493Z,94857.02
2018-04-23T13:44:05.171Z,94854.14
2018-04-23T13:46:31.928Z,94855.30
2018-04-23T13:48:58.502Z,94853.53
2018-04-23T13:51:25.165Z,94852.14
2018-04-23T13:53:51.800Z,94855.09
2018-04-23T13:56:18.527Z,94848.92
2018-04-23T13:58:45.216Z,94854.67
2018-04-23T14:01:11.875Z,94856.81
2018-04-23T14:03:38.555Z,94853.02
2018-04-23T14:06:05.198Z,94853.88
2018-04-23T14:08:31.887Z,94853.58
2018-04-23T14:10:58.486Z,94854.40
2018-04-23T14:13:25.130Z,94854.77
2018-04-23T14:15:51.772Z,94852.05
2018-04-23T14:18:18.435Z,94848.93
2018-04-23T14:20:45.112Z,94844.64
2018-04-23T14:23:11.745Z,94848.97
2018-04-23T14:25:38.461Z,94844.86
2018-04-23T14:28:05.093Z,94850.71
2018-04-23T14:30:31.776Z,94853.08
2018-04-23T14:32:58.391Z,94843.66
2018-04-23T14:35:25.056Z,94844.68
2018-04-23T14:37:51.657Z,94845.47
2018-04-23T14:40:18.296Z,94843.20
2018-04-23T14:42:45.015Z,94838.27
2018-04-23T14:45:11.655Z,94840.27
2018-04-23T14:47:38.251Z,94841.42
2018-04-23T14:50:04.933Z,94835.44
2018-04-23T14:52:31.657Z,94845.23
2018-04-23T14:54:58.364Z,94839.36
2018-04-23T14:57:25.002Z,94846.20
2018-04-23T14:59:51.683Z,94842.09
2018-04-23T15:02:18.311Z,94837.70
2018-04-23T15:04:44.988Z,94836.17
2018-04-23T15:07:11.586Z,94846.36
2018-04-23T15:09:38.229Z,94846.91
2018-04-23T15:12:04.899Z,94847.33
2018-04-23T15:14:31.540Z,94846.09
2018-04-23T15:16:58.206Z,94849.47
2018-04-23T15:19:24.849Z,94848.08
2018-04-23T15:21:51.514Z,94849.66
2018-04-23T15:24:18.235Z,94847.66
2018-04-23T15:26:44.874Z,94854.02
2018-04-23T15:29:11.555Z,94854.52
2018-04-23T15:31:38.227Z,94855.02
2018-04-23T15:34:04.869Z,94857.20
2018-04-23T15:36:31.545Z,94854.47
2018-04-23T15:38:59.154Z,94844.96
2018-04-23T15:41:25.874Z,94855.20
2018-04-23T15:43:52.515Z,94849.79
2018-04-23T15:46:19.177Z,94855.30
2018-04-23T15:48:45.855Z,94859.44
2018-04-23T15:51:12.490Z,94855.99
2018-04-23T15:53:39.165Z,94862.79
2018-04-23T15:56:05.829Z,94863.39
2018-04-23T15:58:34.090Z,94861.25
2018-04-23T16:00:59.125Z,94867.24
2018-04-23T16:03:25.759Z,94868.33
2018-04-23T16:05:52.438Z,94872.14
2018-04-23T16:08:19.065Z,94871.31
2018-04-23T16:10:45.719Z,94870.21
2018-04-23T16:13:12.355Z,94875.56
2018-04-23T16:15:38.988Z,94881.22
2018-04-23T16:18:05.670Z,94882.95
2018-04-23T16:20:32.344Z,94885.36
2018-04-23T16:22:59.028Z,94882.38
2018-04-23T16:25:25.687Z,94889.39
2018-04-23T16:27:52.377Z,94887.84
2018-04-23T16:30:19.017Z,94889.20
2018-04-23T16:32:45.614Z,94890.02
2018-04-23T16:35:12.295Z,94893.91
2018-04-23T16:37:38.928Z,94894.84
2018-04-23T16:40:05.601Z,94905.64
2018-04-23T16:42:32.211Z,94908.47
2018-04-23T16:44:58.861Z,94902.48
2018-04-23T16:47:25.507Z,94908.80
2018-04-23T16:49:52.185Z,94904.89
2018-04-23T16:52:18.789Z,94910.87
2018-04-23T16:54:45.452Z,94911.73
2018-04-23T16:57:12.108Z,94913.81
2018-04-23T16:59:38.702Z,94915.65
2018-04-23T17:02:05.339Z,94921.48
2018-04-23T17:04:31.984Z,94919.13
2018-04-23T17:06:58.761Z,94927.78
2018-04-23T17:09:25.356Z,94930.25
2018-04-23T17:11:52.039Z,94932.23
2018-04-23T17:14:18.675Z,94927.36
2018-04-23T17:16:45.311Z,94934.67
2018-04-23T17:19:11.952Z,94931.40
2018-04-23T17:21:38.555Z,94935.29
2018-04-23T17:24:05.259Z,94941.78
2018-04-23T17:26:31.906Z,94942.07
2018-04-23T17:28:58.576Z,94950.36
2018-04-23T17:31:25.190Z,94951.02
2018-04-23T17:33:51.823Z,94950.94
2018-04-23T17:36:18.520Z,94960.83
2018-04-23T17:38:45.142Z,94956.83
2018-04-23T17:41:11.872Z,94958.86
2018-04-23T17:43:38.554Z,94963.18
2018-04-23T17:46:05.259Z,94967.12
2018-04-23T17:48:31.906Z,94971.03
2018-04-23T17:50:58.546Z,94974.58
2018-04-23T17:53:25.260Z,94972.41
2018-04-23T17:55:51.887Z,94977.51
2018-04-23T17:58:18.517Z,94980.30
2018-04-23T18:00:47.988Z,94984.14
2018-04-23T18:03:14.630Z,94987.25
2018-04-23T18:05:41.295Z,94978.40
2018-04-23T18:08:07.943Z,94988.51
2018-04-23T18:10:34.574Z,94984.39
2018-04-23T18:13:01.258Z,94987.09
2018-04-23T18:15:27.890Z,94990.56
2018-04-23T18:17:54.580Z,94994.24
2018-04-23T18:20:21.220Z,94993.98
2018-04-23T18:22:47.963Z,95000.80
2018-04-23T18:25:14.565Z,95000.59
2018-04-23T18:27:41.213Z,95009.14
2018-04-23T18:30:07.857Z,95012.12
2018-04-23T18:32:34.525Z,95010.84
2018-04-23T18:35:01.210Z,95009.95
2018-04-23T18:37:27.877Z,95006.21
2018-04-23T18:39:54.506Z,95006.78
2018-04-23T18:42:21.177Z,95009.97
2018-04-23T18:44:47.809Z,95015.63
2018-04-23T18:47:14.485Z,95015.28
2018-04-23T18:49:41.195Z,95019.00
2018-04-23T18:52:07.836Z,95021.75
2018-04-23T18:54:34.468Z,95021.62
2018-04-23T18:57:01.147Z,95019.45
2018-04-23T18:59:27.850Z,95019.14
2018-04-23T19:01:54.482Z,95019.20
2018-04-23T19:04:21.113Z,95024.19
2018-04-23T19:06:47.835Z,95026.73
2018-04-23T19:09:14.438Z,95035.53
2018-04-23T19:11:41.080Z,95030.71
2018-04-23T19:14:07.756Z,95042.98
2018-04-23T19:16:34.395Z,95038.87
2018-04-23T19:19:01.067Z,95038.11
2018-04-23T19:21:27.746Z,95036.60
2018-04-23T19:23:54.460Z,95034.25
2018-04-23T19:26:21.088Z,95037.23
2018-04-23T19:28:47.773Z,95041.09
2018-04-23T19:31:14.416Z,95039.30
2018-04-23T19:33:41.049Z,95038.63
2018-04-23T19:36:07.718Z,95034.58
2018-04-23T19:38:34.360Z,95040.26
2018-04-23T19:41:01.000Z,95039.36
2018-04-23T19:43:27.631Z,95036.58
2018-04-23T19:45:54.340Z,95043.88
2018-04-23T19:48:20.972Z,95046.91
2018-04-23T19:50:47.632Z,95045.71
2018-04-23T19:53:14.259Z,95050.38
2018-04-23T19:55:40.894Z,95048.44
2018-04-23T19:58:07.580Z,95056.21
2018-04-23T20:00:34.268Z,95048.06
2018-04-23T20:03:00.899Z,95049.11
2018-04-23T20:05:27.511Z,95051.92
2018-04-23T20:07:54.226Z,95055.20
2018-04-23T20:10:20.870Z,95051.52
2018-04-23T20:12:47.502Z,95050.70
2018-04-23T20:15:14.134Z,95055.77
2018-04-23T20:17:40.808Z,95054.87
2018-04-23T20:20:07.487Z,95049.63
2018-04-23T20:22:34.107Z,95050.81
2018-04-23T20:25:00.715Z,95048.06
2018-04-23T20:27:27.387Z,95048.61
2018-04-23T20:29:54.099Z,95048.00
2018-04-23T20:32:20.750Z,95047.10
2018-04-23T20:34:47.552Z,95049.36
2018-04-23T20:37:14.191Z,95048.61
2018-04-23T20:39:40.856Z,95044.69
2018-04-23T20:42:07.514Z,95042.05
2018-04-23T20:44:34.185Z,95045.06
2018-04-23T20:47:00.814Z,95044.75
2018-04-23T20:49:27.529Z,95049.06
2018-04-23T20:51:54.162Z,95050.63
2018-04-23T20:54:20.823Z,95055.89
2018-04-23T20:56:47.506Z,95046.61
2018-04-23T20:59:14.179Z,95053.09
2018-04-23T21:01:40.807Z,95054.43
2018-04-23T21:04:07.474Z,95057.59
2018-04-23T21:06:34.088Z,95059.36
2018-04-23T21:09:00.787Z,95055.97
2018-04-23T21:11:27.427Z,95059.04
2018-04-23T21:13:54.055Z,95061.45
2018-04-23T21:16:20.698Z,95060.83
2018-04-23T21:18:47.396Z,95069.25
2018-04-23T21:21:14.063Z,95067.16
2018-04-23T21:23:40.704Z,95071.66
2018-04-23T21:26:07.333Z,95073.22
2018-04-23T21:28:34.019Z,95077.19
2018-04-23T21:31:00.685Z,95080.46
2018-04-23T21:33:27.310Z,95079.70
2018-04-23T21:35:53.989Z,95081.79
2018-04-23T21:38:20.629Z,95090.61
2018-04-23T21:40:47.260Z,95090.73
2018-04-23T21:43:13.938Z,95081.53
2018-04-23T21:45:40.604Z,95090.52
2018-04-23T21:48:07.349Z,95096.72
2018-04-23T21:50:34.021Z,95094.84
2018-04-23T21:53:00.673Z,95092.86
2018-04-23T21:55:27.336Z,95097.92
2018-04-23T21:57:53.932Z,95094.58
2018-04-23T22:00:20.603Z,95095.97
2018-04-23T22:02:47.199Z,95099.58
2018-04-23T22:05:14.010Z,95096.66
2018-04-23T22:07:40.509Z,95095.57
2018-04-23T22:10:07.193Z,95094.30
2018-04-23T22:12:33.827Z,95096.21
2018-04-23T22:15:00.511Z,95092.30
2018-04-23T22:17:27.107Z,95095.25
2018-04-23T22:19:53.784Z,95093.24
2018-04-23T22:22:20.436Z,95095.98
2018-04-23T22:24:47.145Z,95093.55
2018-04-23T22:27:13.743Z,95087.80
2018-04-23T22:29:40.379Z,95090.45
2018-04-23T22:32:10.078Z,95085.11
2018-04-23T22:34:36.649Z,95092.00
2018-04-23T22:37:03.367Z,95085.51
2018-04-23T22:39:29.970Z,95080.98
2018-04-23T22:41:56.597Z,95088.46
2018-04-23T22:44:23.322Z,95081.88
2018-04-23T22:46:49.954Z,95086.44
2018-04-23T22:49:16.585Z,95081.30
2018-04-23T22:51:43.225Z,95083.77
2018-04-23T22:54:09.917Z,95080.56
2018-04-23T22:56:36.552Z,95081.48
2018-04-23T22:59:03.150Z,95080.98
2018-04-23T23:01:29.785Z,95077.14
2018-04-23T23:03:56.415Z,95086.17
2018-04-23T23:06:23.059Z,95077.69
2018-04-23T23:08:49.700Z,95076.55
2018-04-23T23:11:16.341Z,95079.65
2018-04-23T23:13:43.011Z,95075.99
2018-04-23T23:16:09.641Z,95079.39
2018-04-23T23:18:36.285Z,95077.63
2018-04-23T23:21:02.954Z,95078.75
2018-04-23T23:23:29.625Z,95078.14
2018-04-23T23:25:56.226Z,95081.72
2018-04-23T23:28:22.835Z,95076.66
2018-04-23T23:30:49.465Z,95074.44
2018-04-23T23:33:16.137Z,95075.13
2018-04-23T23:35:42.743Z,95080.97
2018-04-23T23:38:09.431Z,95078.61
2018-04-23T23:40:36.074Z,95073.09
2018-04-23T23:43:02.667Z,95078.82
2018-04-23T23:45:29.338Z,95080.52
2018-04-23T23:47:55.946Z,95074.63
2018-04-23T23:50:22.604Z,95079.10
2018-04-23T23:55:15.523Z,95077.08
2018-04-23T23:57:42.158Z,95075.05
